Time;durP1;ratioP1;P1;durP2;ratioP2;P2;SDS_P1;SDS_P2;PMS_P1;PMS_P2;Temp;Humidity;BMP_temperature;BMP_pressure;BME280_temperature;BME280_humidity;BME280_pressure;Samples;Min_cycle;Max_cycle;Signal;HPM_P1;HPM_P2
2022/08/16 00:00:33;;;;;;;9.45;3.83;;;20.80;99.90;21.00;99339.00;;;;4992296;28;87693;-61
2022/08/16 00:03:01;;;;;;;7.20;3.60;;;20.80;99.90;21.00;99344.00;;;;4990616;28;87742;-61
2022/08/16 00:05:28;;;;;;;17.15;3.85;;;20.70;99.90;21.00;99342.00;;;;4995134;28;88026;-60
2022/08/16 00:07:55;;;;;;;7.53;4.07;;;;;21.00;99345.00;;;;4984951;28;87447;-60
2022/08/16 00:10:26;;;;;;;11.75;3.97;;;20.70;99.90;20.90;99339.00;;;;4992379;28;88595;-60
2022/08/16 00:12:52;;;;;;;9.10;3.83;;;;;20.90;99346.00;;;;4997757;28;87041;-60
2022/08/16 00:15:39;;;;;;;7.47;3.60;;;20.60;99.90;20.80;99337.00;;;;4986575;28;87397;-60
2022/08/16 00:18:06;;;;;;;8.38;4.55;;;20.60;99.90;20.80;99341.00;;;;4994436;28;86996;-60
2022/08/16 00:20:33;;;;;;;7.53;4.68;;;;;20.80;99343.00;;;;4989358;28;88699;-60
2022/08/16 00:22:59;;;;;;;7.88;3.92;;;;;20.70;99339.00;;;;4983668;28;87505;-60
2022/08/16 00:25:26;;;;;;;7.70;4.22;;;;;20.70;99343.00;;;;4995603;28;87437;-60
2022/08/16 00:27:53;;;;;;;6.55;3.90;;;;;20.60;99330.00;;;;4988689;28;87141;-60
2022/08/16 00:30:22;;;;;;;10.77;4.10;;;20.40;99.90;20.60;99334.00;;;;4989770;28;88495;-60
2022/08/16 00:32:53;;;;;;;10.13;4.22;;;20.40;99.90;20.60;99337.00;;;;4988767;28;88315;-60
2022/08/16 00:35:25;;;;;;;7.68;3.75;;;20.40;99.90;20.60;99329.00;;;;4994956;28;87320;-60
2022/08/16 00:37:55;;;;;;;12.30;4.35;;;;;20.50;99331.00;;;;4973003;28;88122;-60
2022/08/16 00:40:41;;;;;;;9.50;3.75;;;20.30;99.90;20.50;99335.00;;;;4983119;28;87713;-60
2022/08/16 00:43:14;;;;;;;10.40;3.95;;;20.30;99.90;20.40;99337.00;;;;4994831;28;87254;-60
2022/08/16 00:45:41;;;;;;;9.95;4.28;;;;;20.40;99340.00;;;;4982263;28;87499;-60
2022/08/16 00:48:13;;;;;;;11.85;4.30;;;20.20;99.90;20.30;99338.00;;;;4992350;28;86195;-60
2022/08/16 00:50:40;;;;;;;8.48;4.53;;;;;20.30;99337.00;;;;4981111;28;87642;-60
2022/08/16 00:53:10;;;;;;;11.57;4.07;;;20.10;99.90;20.30;99347.00;;;;4989333;28;88015;-60
2022/08/16 00:55:42;;;;;;;8.25;4.03;;;20.10;99.90;20.30;99351.00;;;;4990085;28;87888;-60
2022/08/16 00:58:10;;;;;;;10.55;3.90;;;20.10;99.90;20.30;99351.00;;;;4985333;28;87548;-60
2022/08/16 01:00:36;;;;;;;13.35;4.03;;;;;20.20;99340.00;;;;4989203;28;88767;-60
2022/08/16 01:03:09;;;;;;;8.68;3.78;;;20.00;99.90;20.20;99349.00;;;;4985755;28;87286;-60
2022/08/16 01:05:36;;;;;;;10.00;4.45;;;;;20.20;99349.00;;;;4995458;28;86983;-60
2022/08/16 01:08:03;;;;;;;11.13;4.30;;;;;20.20;99346.00;;;;4980944;28;87250;-60
2022/08/16 01:10:31;;;;;;;10.90;5.00;;;20.00;99.90;20.10;99345.00;;;;4987163;28;88722;-61
2022/08/16 01:12:59;;;;;;;8.07;4.00;;;19.90;99.90;20.10;99354.00;;;;4982527;28;88371;-60
2022/08/16 01:15:27;;;;;;;12.63;3.90;;;19.90;99.90;20.10;99362.00;;;;4994976;28;86899;-60
2022/08/16 01:17:54;;;;;;;6.05;3.55;;;;;20.10;99357.00;;;;4989879;28;88234;-60
2022/08/16 01:20:24;;;;;;;8.23;3.70;;;19.90;99.90;20.00;99351.00;;;;4991351;28;88527;-60
2022/08/16 01:23:17;;;;;;;6.32;3.30;;;19.90;99.90;20.00;99353.00;;;;4999046;28;89719;-60
2022/08/16 01:25:49;;;;;;;7.15;3.67;;;19.90;99.90;20.00;99359.00;;;;4970886;28;87237;-60
2022/08/16 01:28:18;;;;;;;9.40;4.07;;;19.90;99.90;20.00;99351.00;;;;4984716;28;87262;-60
2022/08/16 01:30:54;;;;;;;11.00;3.63;;;19.80;99.90;20.00;99352.00;;;;4987565;28;87540;-60
2022/08/16 01:33:21;;;;;;;8.48;3.60;;;;;20.00;99356.00;;;;4955022;28;88437;-60
2022/08/16 01:35:56;;;;;;;11.23;3.45;;;19.80;99.90;19.90;99352.00;;;;4982923;28;87005;-60
2022/08/16 01:38:45;;;;;;;7.05;3.60;;;19.80;99.90;19.90;99351.00;;;;4993191;28;86216;-60
2022/08/16 01:41:17;;;;;;;12.63;4.18;;;19.70;99.90;19.90;99351.00;;;;4990451;28;87428;-60
2022/08/16 01:43:46;;;;;;;11.07;4.03;;;19.70;99.90;19.90;99350.00;;;;4973434;28;87663;-60
2022/08/16 01:46:29;;;;;;;10.52;3.50;;;19.70;99.90;19.80;99367.00;;;;4994463;28;87987;-61
2022/08/16 01:49:05;;;;;;;6.18;3.28;;;19.60;99.90;19.80;99359.00;;;;4988965;28;87426;-60
2022/08/16 01:51:32;;;;;;;7.57;3.38;;;19.60;99.90;19.80;99352.00;;;;4996688;28;87668;-60
2022/08/16 01:53:59;;;;;;;11.88;3.95;;;;;19.70;99356.00;;;;4991002;28;87360;-60
2022/08/16 01:56:28;;;;;;;11.20;3.90;;;19.50;99.90;19.70;99359.00;;;;4987311;28;87406;-60
2022/08/16 01:59:00;;;;;;;8.85;3.92;;;19.50;99.90;19.60;99363.00;;;;4984329;28;87152;-60
2022/08/16 02:01:28;;;;;;;7.95;3.65;;;19.40;99.90;19.60;99366.00;;;;4987467;28;87734;-60
2022/08/16 02:03:56;;;;;;;12.77;3.92;;;19.40;99.90;19.60;99367.00;;;;4988768;28;87357;-60
2022/08/16 02:06:22;;;;;;;8.68;3.85;;;;;19.60;99361.00;;;;4988687;28;87079;-60
2022/08/16 02:08:49;;;;;;;6.47;3.35;;;;;19.50;99360.00;;;;4996731;28;87503;-60
2022/08/16 02:11:16;;;;;;;8.10;3.60;;;;;19.50;99366.00;;;;4982004;28;88491;-60
2022/08/16 02:13:43;;;;;;;8.93;4.07;;;;;19.50;99359.00;;;;4987987;28;89301;-60
2022/08/16 02:16:14;;;;;;;7.82;3.38;;;;;19.50;99365.00;;;;4973915;28;87237;-61
2022/08/16 02:18:41;;;;;;;7.38;3.85;;;;;19.50;99365.00;;;;4996993;28;87478;-60
2022/08/16 02:21:10;;;;;;;8.35;3.78;;;19.30;99.90;19.40;99367.00;;;;4995254;28;88508;-60
2022/08/16 02:23:37;;;;;;;13.80;3.95;;;19.20;99.90;19.40;99354.00;;;;4971857;28;87669;-60
2022/08/16 02:26:04;;;;;;;11.32;3.95;;;19.30;99.90;19.40;99362.00;;;;4983766;28;87125;-60
2022/08/16 02:28:31;;;;;;;10.50;4.43;;;;;19.40;99365.00;;;;4995417;28;86737;-61
2022/08/16 02:31:03;;;;;;;7.18;4.10;;;19.20;99.90;19.40;99364.00;;;;4990549;28;87537;-59
2022/08/16 02:33:29;;;;;;;7.97;3.80;;;;;19.40;99360.00;;;;4989720;28;87553;-59
2022/08/16 02:35:56;;;;;;;9.55;4.03;;;;;19.40;99370.00;;;;4994931;28;87967;-61
2022/08/16 02:38:26;;;;;;;9.70;4.50;;;19.20;99.90;19.40;99360.00;;;;4994928;28;87152;-60
2022/08/16 02:40:53;;;;;;;7.53;4.18;;;;;19.40;99356.00;;;;4995841;28;87604;-60
2022/08/16 02:43:19;;;;;;;14.35;4.18;;;;;19.50;99362.00;;;;4991716;28;87196;-60
2022/08/16 02:45:46;;;;;;;11.00;4.18;;;;;19.50;99362.00;;;;4979970;28;87583;-60
2022/08/16 02:48:12;;;;;;;11.68;4.30;;;;;19.50;99372.00;;;;4990819;28;87581;-60
2022/08/16 02:50:39;;;;;;;14.38;4.28;;;;;19.50;99372.00;;;;4978977;28;87542;-60
2022/08/16 02:53:05;;;;;;;10.80;4.68;;;;;19.50;99362.00;;;;4987667;28;87394;-60
2022/08/16 02:55:32;;;;;;;10.07;4.15;;;;;19.50;99361.00;;;;4986099;28;87546;-60
2022/08/16 02:57:58;;;;;;;11.82;5.05;;;;;19.50;99374.00;;;;4992874;28;86998;-60
2022/08/16 03:00:25;;;;;;;10.85;5.07;;;;;19.50;99361.00;;;;4985603;28;89114;-60
2022/08/16 03:02:55;;;;;;;7.25;4.30;;;19.60;99.90;19.80;99373.00;;;;4994805;28;88421;-60
2022/08/16 03:05:22;;;;;;;9.20;4.82;;;;;20.20;99374.00;;;;4979902;28;87564;-60
2022/08/16 03:07:49;;;;;;;11.48;4.18;;;;;20.70;99367.00;;;;4997405;28;87063;-61
2022/08/16 03:10:16;;;;;;;10.43;4.25;;;;;21.10;99365.00;;;;4973202;28;87867;-61
2022/08/16 03:12:48;;;;;;;;;;;20.80;99.90;21.40;99367.00;;;;4992494;28;87685;-60
2022/08/16 03:15:16;;;;;;;9.50;3.97;;;21.30;99.90;21.60;99367.00;;;;4975683;28;87102;-60
2022/08/16 03:17:43;;;;;;;9.45;4.18;;;;;21.90;99366.00;;;;4995219;28;86678;-60
2022/08/16 03:20:13;;;;;;;8.82;4.60;;;21.80;99.90;22.20;99381.00;;;;4981484;28;87552;-61
2022/08/16 03:22:40;;;;;;;7.47;4.13;;;;;22.30;99375.00;;;;4993379;28;88038;-62
2022/08/16 03:25:13;;;;;;;7.63;3.88;;;22.10;99.90;22.40;99373.00;;;;4993808;28;88366;-63
2022/08/16 03:27:44;;;;;;;10.40;3.80;;;;;22.60;99377.00;;;;4994414;28;87017;-63
2022/08/16 03:30:21;;;;;;;;;;;22.20;99.90;22.80;99373.00;;;;4991136;28;87491;-62
2022/08/16 03:33:08;;;;;;;8.95;3.92;;;;;22.80;99366.00;;;;4994935;28;87513;-63
2022/08/16 03:35:43;;;;;;;12.93;4.50;;;;;23.00;99378.00;;;;4997256;28;87885;-62
2022/08/16 03:38:24;;;;;;;10.23;4.70;;;;;23.20;99372.00;;;;4998036;28;87380;-63
2022/08/16 03:40:54;;;;;;;9.85;4.35;;;;;23.30;99382.00;;;;4998202;28;88039;-63
2022/08/16 03:43:24;;;;;;;7.20;3.70;;;;;23.50;99371.00;;;;4993230;28;87251;-63
2022/08/16 03:45:54;;;;;;;9.35;4.75;;;23.10;99.90;23.60;99377.00;;;;4981158;28;87473;-63
2022/08/16 03:48:32;;;;;;;11.23;4.20;;;23.30;99.90;23.70;99385.00;;;;4991832;28;87508;-63
2022/08/16 03:51:04;;;;;;;10.05;4.00;;;23.40;99.90;23.80;99377.00;;;;4965115;28;88315;-63
2022/08/16 03:53:35;;;;;;;10.07;4.40;;;;;23.90;99380.00;;;;4987933;28;88612;-63
2022/08/16 03:56:03;;;;;;;7.47;3.95;;;23.40;99.90;23.90;99374.00;;;;4977783;28;87715;-63
2022/08/16 03:58:29;;;;;;;10.68;4.25;;;;;24.00;99377.00;;;;4990721;28;87382;-63
2022/08/16 04:00:56;;;;;;;8.27;3.80;;;;;24.10;99384.00;;;;4987940;28;88465;-63
2022/08/16 04:03:23;;;;;;;9.93;4.25;;;;;24.10;99388.00;;;;4983986;28;87148;-62
2022/08/16 04:05:50;;;;;;;12.57;4.07;;;;;24.10;99381.00;;;;4985078;28;86956;-63
2022/08/16 04:08:20;;;;;;;8.80;4.15;;;23.80;99.90;24.20;99380.00;;;;5000908;28;86903;-63
2022/08/16 04:10:49;;;;;;;8.07;3.80;;;;;24.50;99377.00;;;;4976085;28;88161;-64
2022/08/16 04:13:17;;;;;;;9.88;3.63;;;;;24.70;99376.00;;;;4983912;28;88057;-64
2022/08/16 04:15:43;;;;;;;13.73;4.20;;;;;24.80;99375.00;;;;4995112;28;87875;-63
2022/08/16 04:18:22;;;;;;;11.45;4.47;;;;;25.00;99376.00;;;;4992139;28;87017;-64
2022/08/16 04:20:53;;;;;;;11.23;3.88;;;;;25.10;99389.00;;;;4987827;28;87734;-64
2022/08/16 04:23:24;;;;;;;7.40;3.75;;;;;25.30;99385.00;;;;4991554;28;87316;-64
2022/08/16 04:25:50;;;;;;;8.88;3.80;;;;;25.50;99390.00;;;;4989009;28;87186;-63
2022/08/16 04:28:17;;;;;;;8.10;3.50;;;;;25.60;99388.00;;;;4991882;28;88259;-63
2022/08/16 04:30:44;;;;;;;8.10;3.67;;;;;25.60;99389.00;;;;4993256;28;87508;-63
2022/08/16 04:33:11;;;;;;;11.20;3.85;;;;;25.60;99386.00;;;;4993872;28;87330;-64
2022/08/16 04:35:40;;;;;;;6.18;3.28;;;;;25.80;99389.00;;;;4993488;28;87230;-63
2022/08/16 04:38:08;;;;;;;10.07;3.85;;;;;25.90;99382.00;;;;4997472;28;87633;-63
2022/08/16 04:40:40;;;;;;;8.48;3.22;;;;;26.00;99389.00;;;;4995855;28;89674;-62
2022/08/16 04:43:08;;;;;;;10.60;3.85;;;;;25.90;99387.00;;;;4985385;28;88173;-61
2022/08/16 04:45:35;;;;;;;7.47;3.80;;;;;26.10;99398.00;;;;5000822;28;87210;-62
2022/08/16 04:48:03;;;;;;;11.48;3.80;;;;;26.20;99392.00;;;;4990770;28;87708;-63
2022/08/16 04:50:37;;;;;;;8.63;3.63;;;;;26.20;99399.00;;;;4981626;28;87288;-63
2022/08/16 04:53:09;;;;;;;8.95;3.53;;;;;26.20;99400.00;;;;4980224;28;87570;-63
2022/08/16 04:55:43;;;;;;;8.25;3.67;;;25.50;98.60;26.10;99397.00;;;;4987589;28;87519;-63
2022/08/16 04:58:10;;;;;;;7.82;3.50;;;;;26.10;99388.00;;;;4993445;28;86401;-63
2022/08/16 05:00:37;;;;;;;6.60;3.42;;;;;26.10;99397.00;;;;4986740;28;88992;-63
2022/08/16 05:03:17;;;;;;;6.67;3.53;;;;;26.40;99395.00;;;;4994392;28;87587;-63
2022/08/16 05:05:49;;;;;;;10.27;3.88;;;25.70;98.20;26.30;99398.00;;;;4982441;28;88760;-63
2022/08/16 05:08:20;;;;;;;8.30;3.80;;;;;26.20;99399.00;;;;4991106;28;87144;-63
2022/08/16 05:10:54;;;;;;;12.00;4.03;;;25.60;98.30;26.20;99396.00;;;;4984601;28;88129;-63
2022/08/16 05:13:22;;;;;;;8.68;3.67;;;;;26.10;99386.00;;;;4968256;28;87467;-63
2022/08/16 05:15:49;;;;;;;8.57;3.72;;;;;26.20;99388.00;;;;4993811;28;87422;-63
2022/08/16 05:18:17;;;;;;;6.68;3.35;;;;;26.20;99390.00;;;;4969705;28;87281;-63
2022/08/16 05:20:52;;;;;;;5.82;3.20;;;;;26.30;99383.00;;;;4980958;28;87992;-63
2022/08/16 05:23:19;;;;;;;7.32;4.05;;;;;26.40;99386.00;;;;4978146;28;88471;-63
2022/08/16 05:25:47;;;;;;;7.32;3.40;;;;;26.70;99390.00;;;;4968506;28;86994;-63
2022/08/16 05:28:14;;;;;;;8.27;3.17;;;;;26.70;99391.00;;;;4997143;28;87353;-63
2022/08/16 05:30:46;;;;;;;7.82;2.97;;;;;26.80;99388.00;;;;4967470;28;89919;-63
2022/08/16 05:33:20;;;;;;;14.13;3.28;;;;;26.90;99393.00;;;;4984817;28;87622;-63
2022/08/16 05:35:49;;;;;;;5.93;2.85;;;26.60;97.40;27.10;99390.00;;;;4992285;28;87168;-63
2022/08/16 05:38:26;;;;;;;8.75;3.53;;;;;27.20;99402.00;;;;4968292;28;87071;-63
2022/08/16 05:40:57;;;;;;;7.03;3.50;;;26.70;96.80;27.30;99394.00;;;;4995794;28;87607;-63
2022/08/16 05:43:25;;;;;;;10.90;3.20;;;;;27.40;99397.00;;;;4973563;28;87487;-63
2022/08/16 05:45:53;;;;;;;8.57;3.00;;;26.90;96.20;27.60;99393.00;;;;4978713;28;86994;-62
2022/08/16 05:48:20;;;;;;;8.93;3.10;;;;;27.70;99399.00;;;;4973399;28;86927;-62
2022/08/16 05:50:57;;;;;;;8.77;3.55;;;;;27.50;99395.00;;;;4978837;28;87738;-62
2022/08/16 05:53:24;;;;;;;7.20;3.90;;;;;27.30;99392.00;;;;4984863;28;87924;-62
2022/08/16 05:56:06;;;;;;;9.40;3.15;;;;;27.20;99387.00;;;;4987143;28;88389;-62
2022/08/16 05:58:36;;;;;;;8.53;2.93;;;;;27.30;99390.00;;;;4984495;28;87004;-62
2022/08/16 06:01:03;;;;;;;7.95;3.20;;;26.60;97.10;27.30;99394.00;;;;4988124;28;87783;-62
2022/08/16 06:03:31;;;;;;;9.10;3.03;;;;;27.00;99399.00;;;;4983708;28;87432;-63
2022/08/16 06:06:01;;;;;;;8.45;3.53;;;;;26.70;99396.00;;;;4992685;28;87193;-62
2022/08/16 06:08:29;;;;;;;11.90;4.30;;;;;26.30;99396.00;;;;4978806;28;87449;-62
2022/08/16 06:10:56;;;;;;;6.75;3.30;;;;;25.90;99395.00;;;;4968753;28;88725;-63
2022/08/16 06:13:22;;;;;;;9.95;2.90;;;;;25.70;99400.00;;;;4989507;28;87407;-63
2022/08/16 06:15:50;;;;;;;6.47;3.50;;;;;25.50;99395.00;;;;4983600;28;87559;-62
2022/08/16 06:18:18;;;;;;;7.70;3.33;;;;;25.30;99395.00;;;;4990976;28;87113;-62
2022/08/16 06:20:47;;;;;;;13.20;3.25;;;;;25.20;99405.00;;;;4977654;28;89704;-62
2022/08/16 06:23:17;;;;;;;;;;;25.00;98.00;25.00;99408.00;;;;4973673;28;88308;-63
2022/08/16 06:25:59;;;;;;;;;;;24.90;98.40;25.10;99398.00;;;;4990034;28;87338;-63
2022/08/16 06:28:31;;;;;;;6.03;2.53;;;;;25.10;99394.00;;;;4991089;28;87057;-63
2022/08/16 06:30:58;;;;;;;9.95;3.28;;;;;25.00;99393.00;;;;4983388;28;87697;-62
2022/08/16 06:33:24;;;;;;;7.15;2.72;;;;;25.00;99393.00;;;;4984092;28;88416;-62
2022/08/16 06:35:54;;;;;;;11.07;3.42;;;24.90;98.40;25.00;99406.00;;;;4983366;28;87500;-63
2022/08/16 06:38:21;;;;;;;8.00;4.05;;;;;25.10;99395.00;;;;4991267;28;86619;-63
2022/08/16 06:40:49;;;;;;;11.60;5.18;;;25.00;98.50;25.10;99402.00;;;;4979421;28;87239;-63
2022/08/16 06:43:18;;;;;;;10.40;3.03;;;;;25.10;99401.00;;;;4984641;28;87276;-63
2022/08/16 06:45:55;;;;;;;14.82;4.00;;;;;25.20;99399.00;;;;4993276;28;88539;-63
2022/08/16 06:48:27;;;;;;;6.10;2.92;;;;;25.20;99398.00;;;;4991577;28;87946;-63
2022/08/16 06:50:57;;;;;;;7.07;2.72;;;;;25.00;99395.00;;;;4991832;28;88588;-63
2022/08/16 06:53:23;;;;;;;6.90;3.38;;;25.00;98.60;25.10;99397.00;;;;4990111;28;87474;-63
2022/08/16 06:55:59;;;;;;;11.50;3.22;;;25.00;98.00;25.20;99397.00;;;;4988772;28;87892;-63
2022/08/16 06:58:36;;;;;;;11.68;3.28;;;;;25.20;99396.00;;;;4989561;28;87399;-63
2022/08/16 07:01:08;;;;;;;10.68;3.50;;;;;25.30;99389.00;;;;4990487;28;87608;-63
2022/08/16 07:03:37;;;;;;;7.13;3.20;;;;;25.30;99387.00;;;;4986292;28;88010;-63
2022/08/16 07:06:05;;;;;;;12.38;3.53;;;;;25.40;99384.00;;;;4995790;28;87057;-63
2022/08/16 07:08:37;;;;;;;7.50;3.15;;;;;25.40;99399.00;;;;4981277;28;87079;-62
2022/08/16 07:11:04;;;;;;;6.00;3.83;;;;;25.40;99398.00;;;;4989105;28;88460;-62
2022/08/16 07:13:35;;;;;;;7.60;3.42;;;;;25.50;99395.00;;;;4986140;28;88010;-63
2022/08/16 07:16:04;;;;;;;15.02;3.63;;;25.50;98.40;25.60;99390.00;;;;4994334;28;88120;-63
2022/08/16 07:18:32;;;;;;;10.98;3.88;;;;;25.70;99392.00;;;;4999757;28;87168;-62
2022/08/16 07:20:58;;;;;;;11.02;3.00;;;;;25.80;99393.00;;;;4997642;28;87674;-63
2022/08/16 07:23:25;;;;;;;10.98;3.47;;;25.70;97.00;25.90;99403.00;;;;4995637;28;87364;-63
2022/08/16 07:25:56;;;;;;;7.65;3.72;;;;;25.90;99391.00;;;;4989383;28;86987;-63
2022/08/16 07:28:23;;;;;;;9.48;3.60;;;;;25.90;99391.00;;;;4975680;28;86794;-63
2022/08/16 07:30:52;;;;;;;9.88;3.00;;;;;25.90;99392.00;;;;4987207;28;88643;-63
2022/08/16 07:33:34;;;;;;;10.07;2.80;;;25.70;96.70;25.90;99386.00;;;;4986872;28;88339;-62
2022/08/16 07:36:01;;;;;;;12.77;3.40;;;;;26.00;99393.00;;;;4993523;28;88383;-63
2022/08/16 07:38:28;;;;;;;8.02;2.70;;;;;26.10;99394.00;;;;4984702;28;87466;-63
2022/08/16 07:40:56;;;;;;;11.27;2.97;;;;;26.10;99398.00;;;;4966337;28;89270;-63
2022/08/16 07:43:24;;;;;;;11.65;3.30;;;26.00;95.90;26.20;99392.00;;;;4968378;28;87346;-63
2022/08/16 07:45:51;;;;;;;6.78;2.92;;;;;26.30;99398.00;;;;4996679;28;87447;-63
2022/08/16 07:48:17;;;;;;;7.93;3.38;;;;;26.30;99393.00;;;;4989063;28;88033;-62
2022/08/16 07:50:49;;;;;;;15.43;3.92;;;;;26.30;99388.00;;;;4994344;28;87774;-62
2022/08/16 07:53:17;;;;;;;12.30;3.35;;;;;26.40;99397.00;;;;4992965;28;88357;-62
2022/08/16 07:55:43;;;;;;;12.38;3.25;;;;;26.50;99393.00;;;;4990801;28;87067;-62
2022/08/16 07:58:10;;;;;;;5.95;2.83;;;;;26.50;99399.00;;;;4987732;28;87581;-62
2022/08/16 08:00:38;;;;;;;9.65;2.80;;;;;26.50;99401.00;;;;4987567;28;88667;-64
2022/08/16 08:03:04;;;;;;;9.80;3.50;;;;;26.50;99389.00;;;;4986180;28;88420;-63
2022/08/16 08:05:32;;;;;;;7.22;2.63;;;;;26.50;99393.00;;;;4981363;28;87112;-63
2022/08/16 08:07:58;;;;;;;11.57;3.35;;;;;26.50;99388.00;;;;4999767;28;87286;-63
2022/08/16 08:10:25;;;;;;;8.50;2.72;;;;;26.50;99386.00;;;;4995689;28;87791;-63
2022/08/16 08:12:53;;;;;;;10.23;3.92;;;26.20;95.10;26.50;99393.00;;;;4990275;28;87306;-63
2022/08/16 08:15:23;;;;;;;7.30;3.33;;;26.30;95.30;26.50;99398.00;;;;4970169;28;87538;-63
2022/08/16 08:17:50;;;;;;;10.88;4.35;;;;;26.50;99400.00;;;;4989218;28;86861;-62
2022/08/16 08:20:25;;;;;;;9.82;3.55;;;;;26.50;99388.00;;;;4998238;28;87764;-62
2022/08/16 08:22:53;;;;;;;6.85;2.83;;;;;26.50;99387.00;;;;4994265;28;88083;-64
2022/08/16 08:25:21;;;;;;;9.88;3.45;;;;;26.50;99395.00;;;;4994544;28;87974;-63
2022/08/16 08:27:49;;;;;;;9.98;3.30;;;;;26.60;99384.00;;;;4987546;28;87485;-64
2022/08/16 08:30:16;;;;;;;10.65;2.80;;;26.30;94.70;26.50;99391.00;;;;4991826;28;87831;-63
2022/08/16 08:32:44;;;;;;;9.82;3.25;;;;;26.50;99387.00;;;;4986699;28;88746;-62
2022/08/16 08:35:11;;;;;;;6.35;2.45;;;;;26.50;99376.00;;;;4984512;28;88000;-62
2022/08/16 08:37:39;;;;;;;10.88;2.70;;;;;26.40;99383.00;;;;4991555;28;87174;-62
2022/08/16 08:40:10;;;;;;;5.20;2.60;;;26.20;94.50;26.40;99381.00;;;;4979254;28;86955;-63
2022/08/16 08:42:39;;;;;;;6.18;2.60;;;26.20;94.50;26.40;99386.00;;;;4983009;28;88455;-63
2022/08/16 08:45:06;;;;;;;10.80;3.22;;;;;26.50;99385.00;;;;4999433;28;87080;-63
2022/08/16 08:47:33;;;;;;;5.03;2.75;;;;;26.50;99373.00;;;;4989783;28;88057;-63
2022/08/16 08:49:59;;;;;;;11.85;2.97;;;;;26.60;99376.00;;;;4966027;28;89708;-62
2022/08/16 08:52:29;;;;;;;13.02;3.78;;;;;26.70;99364.00;;;;4963222;28;90751;-62
2022/08/16 08:54:57;;;;;;;8.63;3.20;;;;;26.70;99385.00;;;;4971232;28;87104;-62
2022/08/16 08:57:25;;;;;;;8.05;2.80;;;;;26.80;99380.00;;;;4988984;28;87394;-63
2022/08/16 09:00:21;;;;;;;7.80;2.72;;;26.70;94.70;26.90;99377.00;;;;4989641;28;87558;-63
2022/08/16 09:02:50;;;;;;;10.18;4.13;;;26.70;94.30;26.90;99375.00;;;;4967780;28;90325;-63
2022/08/16 09:05:20;;;;;;;9.35;3.97;;;26.60;94.40;26.80;99382.00;;;;4993972;28;87158;-62
2022/08/16 09:07:49;;;;;;;8.57;3.15;;;;;26.70;99377.00;;;;4990052;28;86735;-63
2022/08/16 09:10:16;;;;;;;8.35;3.13;;;;;26.80;99368.00;;;;4988774;28;87616;-63
2022/08/16 09:12:44;;;;;;;11.77;2.88;;;;;26.90;99374.00;;;;4989730;28;87553;-62
2022/08/16 09:15:20;;;;;;;7.60;3.10;;;;;27.00;99378.00;;;;4988424;28;88498;-62
2022/08/16 09:17:47;;;;;;;11.23;3.70;;;;;27.10;99378.00;;;;4989408;28;87017;-62
2022/08/16 09:20:15;;;;;;;7.20;3.17;;;;;27.10;99379.00;;;;4988395;28;87601;-63
2022/08/16 09:22:42;;;;;;;9.10;2.67;;;;;27.10;99382.00;;;;4995005;28;87258;-63
2022/08/16 09:25:12;;;;;;;5.82;2.88;;;27.00;93.60;27.20;99380.00;;;;4979664;28;87141;-62
2022/08/16 09:27:39;;;;;;;5.75;2.83;;;;;27.20;99374.00;;;;4985648;28;87136;-62
2022/08/16 09:30:07;;;;;;;5.28;3.08;;;26.90;93.40;27.20;99374.00;;;;4986352;28;87316;-62
2022/08/16 09:32:34;;;;;;;5.60;3.58;;;;;27.20;99378.00;;;;4990374;28;87350;-62
2022/08/16 09:35:01;;;;;;;7.25;2.95;;;26.80;93.50;27.10;99386.00;;;;4994024;28;87487;-62
2022/08/16 09:37:31;;;;;;;5.15;3.10;;;26.80;92.40;27.10;99384.00;;;;4989148;28;87304;-62
2022/08/16 09:39:58;;;;;;;9.48;3.30;;;26.90;93.00;27.20;99385.00;;;;4981640;28;88305;-62
2022/08/16 09:42:26;;;;;;;6.65;3.00;;;;;27.10;99373.00;;;;4980491;28;88186;-62
2022/08/16 09:44:52;;;;;;;7.65;3.22;;;;;27.00;99379.00;;;;4980063;28;87323;-62
2022/08/16 09:47:19;;;;;;;5.80;2.75;;;;;27.00;99382.00;;;;4982939;28;87119;-62
2022/08/16 09:49:46;;;;;;;13.77;2.97;;;;;27.10;99381.00;;;;4987057;28;88089;-62
2022/08/16 09:52:12;;;;;;;4.60;2.72;;;;;27.10;99384.00;;;;4981354;28;87181;-62
2022/08/16 09:54:39;;;;;;;9.68;2.95;;;;;27.20;99373.00;;;;4989142;28;87135;-61
2022/08/16 09:57:06;;;;;;;8.43;2.70;;;;;27.20;99361.00;;;;4992590;28;86803;-62
2022/08/16 09:59:33;;;;;;;4.03;2.30;;;26.90;90.30;27.30;99371.00;;;;4991612;28;87637;-62
2022/08/16 10:01:59;;;;;;;4.28;2.22;;;;;27.40;99366.00;;;;4984688;28;88420;-62
2022/08/16 10:04:26;;;;;;;5.78;2.50;;;;;27.40;99367.00;;;;4986750;28;88091;-62
2022/08/16 10:06:57;;;;;;;7.28;2.60;;;27.20;91.10;27.60;99379.00;;;;4983534;28;87396;-61
2022/08/16 10:09:24;;;;;;;;;;;27.20;91.50;27.70;99364.00;;;;4990814;28;88555;-62
2022/08/16 10:14:35;;;;;;;5.15;2.85;;;;;27.90;99363.00;;;;4985577;28;87235;-63
2022/08/16 10:17:03;;;;;;;9.13;3.13;;;27.70;91.30;28.10;99350.00;;;;4993295;28;87084;-63
2022/08/16 10:19:31;;;;;;;8.70;2.95;;;27.60;91.30;27.90;99356.00;;;;4991783;28;87121;-63
2022/08/16 10:21:58;;;;;;;7.05;2.85;;;;;28.00;99361.00;;;;4987383;28;88523;-62
2022/08/16 10:24:25;;;;;;;8.27;2.97;;;;;28.10;99367.00;;;;5001393;28;87357;-61
2022/08/16 10:26:51;;;;;;;5.50;3.30;;;;;27.90;99372.00;;;;4991395;28;87276;-62
2022/08/16 10:29:18;;;;;;;7.18;3.22;;;;;27.90;99358.00;;;;4995156;28;89618;-62
2022/08/16 10:31:44;;;;;;;7.55;3.17;;;;;27.90;99369.00;;;;4997054;28;88269;-62
2022/08/16 10:34:11;;;;;;;7.15;3.10;;;;;27.80;99371.00;;;;4992004;28;87285;-63
2022/08/16 10:36:37;;;;;;;9.07;3.40;;;;;27.50;99363.00;;;;4988072;28;86982;-62
2022/08/16 10:39:04;;;;;;;7.30;3.33;;;;;27.30;99360.00;;;;4992396;28;88615;-62
2022/08/16 10:41:32;;;;;;;6.78;2.90;;;26.90;91.40;27.30;99353.00;;;;4984260;28;87250;-63
2022/08/16 10:43:58;;;;;;;9.73;3.58;;;;;27.40;99355.00;;;;4995677;28;87545;-63
2022/08/16 10:46:25;;;;;;;7.53;3.00;;;;;27.50;99357.00;;;;5001559;28;86450;-63
2022/08/16 10:48:52;;;;;;;12.32;3.28;;;;;27.60;99362.00;;;;4994333;28;88727;-63
2022/08/16 10:51:18;;;;;;;7.35;3.60;;;;;27.70;99358.00;;;;4989835;28;87400;-63
2022/08/16 10:53:45;;;;;;;6.68;3.20;;;;;27.70;99358.00;;;;4991793;28;88926;-62
2022/08/16 10:56:12;;;;;;;4.30;2.95;;;27.50;90.40;27.90;99347.00;;;;4993582;28;87366;-63
2022/08/16 10:58:39;;;;;;;7.15;3.03;;;27.50;90.40;27.90;99348.00;;;;4991527;28;87589;-62
2022/08/16 11:01:08;;;;;;;4.53;2.83;;;27.60;90.20;28.00;99342.00;;;;4993250;28;88407;-63
2022/08/16 11:03:36;;;;;;;8.93;3.22;;;27.60;90.50;28.00;99344.00;;;;4989826;28;87028;-63
2022/08/16 11:06:06;;;;;;;5.75;3.58;;;27.80;90.60;28.10;99340.00;;;;4987469;28;87393;-63
2022/08/16 11:08:37;;;;;;;6.77;3.80;;;27.80;90.40;28.20;99338.00;;;;4991009;28;87538;-63
2022/08/16 11:11:06;;;;;;;13.68;3.67;;;27.90;90.60;28.30;99339.00;;;;4992451;28;87311;-63
2022/08/16 11:13:33;;;;;;;5.10;3.22;;;;;28.40;99342.00;;;;4990449;28;87831;-63
2022/08/16 11:16:00;;;;;;;7.35;3.30;;;;;28.40;99337.00;;;;4989323;28;87511;-63
2022/08/16 11:18:30;;;;;;;4.10;2.83;;;28.00;90.40;28.40;99337.00;;;;4976222;28;88864;-62
2022/08/16 11:20:58;;;;;;;8.00;3.80;;;27.90;90.30;28.30;99341.00;;;;4986658;28;88364;-62
2022/08/16 11:23:25;;;;;;;7.22;3.20;;;27.90;90.10;28.30;99328.00;;;;4993056;28;87072;-62
2022/08/16 11:25:54;;;;;;;7.40;3.50;;;27.60;89.60;28.10;99329.00;;;;4990829;28;87304;-62
2022/08/16 11:28:22;;;;;;;6.20;3.95;;;27.50;90.80;27.90;99329.00;;;;4991382;28;88681;-63
2022/08/16 11:30:49;;;;;;;13.30;3.60;;;;;28.10;99335.00;;;;4992019;28;87673;-63
2022/08/16 11:33:17;;;;;;;6.13;3.45;;;;;28.10;99333.00;;;;4987862;28;87564;-63
2022/08/16 11:35:43;;;;;;;9.48;3.80;;;;;28.10;99329.00;;;;4986004;28;86191;-63
2022/08/16 11:38:19;;;;;;;7.75;3.45;;;27.70;90.90;28.10;99328.00;;;;4991131;28;89203;-62
2022/08/16 11:40:55;;;;;;;9.15;3.78;;;27.80;91.10;28.20;99329.00;;;;4980985;28;87448;-62
2022/08/16 11:43:30;;;;;;;9.38;3.60;;;28.00;91.10;28.40;99340.00;;;;4991333;28;88101;-62
2022/08/16 11:46:00;;;;;;;7.20;3.78;;;27.90;90.50;28.40;99326.00;;;;4981640;28;87298;-62
2022/08/16 11:48:29;;;;;;;6.40;3.23;;;28.00;90.50;28.40;99327.00;;;;4972905;28;87674;-62
2022/08/16 11:50:56;;;;;;;12.80;4.32;;;28.00;90.30;28.40;99324.00;;;;4983820;28;88613;-62
2022/08/16 11:53:23;;;;;;;5.72;2.90;;;27.90;89.60;28.40;99318.00;;;;4986707;28;87039;-62